createdAt,value
2023-05-06T04:00:29.067Z,7.43
2023-05-06T04:08:34.194Z,8.27
2023-05-06T04:12:37.471Z,8.15
2023-05-06T04:16:41.648Z,7.82
2023-05-06T04:20:44.214Z,8.18
2023-05-06T04:24:46.936Z,8.20
2023-05-06T04:28:51.496Z,8.85
2023-05-06T04:32:55.785Z,8.82
2023-05-06T04:36:59.094Z,8.82
2023-05-06T04:41:08.440Z,8.75
2023-05-06T04:45:12.297Z,8.27
2023-05-06T04:49:18.871Z,9.15
2023-05-06T04:53:21.549Z,8.10
2023-05-06T04:57:24.139Z,7.97
2023-05-06T05:01:29.200Z,8.20
2023-05-06T05:05:34.181Z,8.23
2023-05-06T05:09:37.401Z,8.57
2023-05-06T05:13:40.150Z,8.30
2023-05-06T05:17:42.832Z,8.38
2023-05-06T05:21:47.019Z,8.07
2023-05-06T05:25:50.130Z,8.48
2023-05-06T05:29:53.216Z,8.32
2023-05-06T05:33:57.032Z,8.68
2023-05-06T05:38:01.117Z,8.00
2023-05-06T05:42:04.981Z,8.32
2023-05-06T05:46:09.729Z,8.85
2023-05-06T05:50:13.852Z,8.75
2023-05-06T05:54:17.899Z,9.05
2023-05-06T05:58:21.404Z,8.73
2023-05-06T06:02:24.537Z,8.07
2023-05-06T06:06:27.349Z,8.23
2023-05-06T06:10:32.390Z,8.00
2023-05-06T06:14:38.028Z,7.57
2023-05-06T06:18:41.230Z,6.80
2023-05-06T06:22:43.861Z,6.07
2023-05-06T06:26:49.183Z,6.45
2023-05-06T06:30:52.430Z,6.22
2023-05-06T06:34:55.020Z,6.20
2023-05-06T06:38:57.569Z,5.73
2023-05-06T06:43:01.794Z,5.63
2023-05-06T06:47:24.353Z,5.82
2023-05-06T06:51:26.887Z,4.93
2023-05-06T06:55:29.527Z,5.60
2023-05-06T06:59:33.425Z,5.23
2023-05-06T07:03:36.023Z,5.85
2023-05-06T07:07:38.590Z,6.37
2023-05-06T07:11:41.130Z,5.60
2023-05-06T07:15:44.989Z,4.60
2023-05-06T07:19:47.619Z,4.88
2023-05-06T07:23:50.159Z,4.17
2023-05-06T07:27:52.738Z,4.83
2023-05-06T07:31:56.693Z,4.50
2023-05-06T07:35:59.218Z,4.57
2023-05-06T07:40:01.834Z,4.23
2023-05-06T07:44:04.976Z,4.53
2023-05-06T07:48:08.955Z,4.07
2023-05-06T07:52:11.495Z,3.78
2023-05-06T07:56:14.101Z,4.20
2023-05-06T08:00:17.624Z,3.80
2023-05-06T08:04:22.065Z,4.30
2023-05-06T08:08:27.728Z,4.03
2023-05-06T08:12:30.539Z,4.10
2023-05-06T08:16:33.204Z,4.43
2023-05-06T08:20:37.086Z,3.97
2023-05-06T08:24:39.681Z,3.33
2023-05-06T08:28:42.197Z,3.57
2023-05-06T08:32:44.810Z,3.80
2023-05-06T08:36:49.272Z,3.45
2023-05-06T08:40:53.864Z,3.47
2023-05-06T08:44:57.215Z,3.47
2023-05-06T08:53:04.252Z,3.33
2023-05-06T08:57:07.059Z,3.15
2023-05-06T09:01:10.185Z,3.00
2023-05-06T09:05:13.128Z,3.40
2023-05-06T09:09:17.234Z,3.70
2023-05-06T09:13:20.260Z,3.45
2023-05-06T09:17:26.472Z,3.38
2023-05-06T09:21:36.694Z,2.88
2023-05-06T09:25:40.995Z,2.90
2023-05-06T09:30:00.795Z,3.00
2023-05-06T09:34:03.374Z,2.25
2023-05-06T09:38:07.316Z,2.38
2023-05-06T09:42:11.669Z,2.58
2023-05-06T09:46:14.295Z,2.17
2023-05-06T09:50:17.135Z,2.40
2023-05-06T09:54:20.421Z,2.33
2023-05-06T09:58:24.585Z,2.63
2023-05-06T10:02:28.285Z,3.13
2023-05-06T10:06:32.707Z,2.70
2023-05-06T10:10:35.885Z,2.50
2023-05-06T10:18:43.062Z,2.50
2023-05-06T10:26:57.374Z,2.72
2023-05-06T10:31:03.960Z,2.40
2023-05-06T10:35:13.280Z,2.20
2023-05-06T10:39:16.329Z,2.28
2023-05-06T10:43:25.186Z,2.30
2023-05-06T10:47:29.131Z,2.50
2023-05-06T10:51:32.253Z,1.92
2023-05-06T10:55:37.752Z,2.42
2023-05-06T10:59:47.691Z,2.10
2023-05-06T11:03:52.961Z,1.50
2023-05-06T11:08:09.612Z,2.17
2023-05-06T11:12:12.154Z,2.55
2023-05-06T11:16:50.757Z,2.00
2023-05-06T11:21:33.570Z,1.92
2023-05-06T11:25:43.765Z,1.67
2023-05-06T11:29:46.629Z,1.50
2023-05-06T11:33:52.398Z,2.00
2023-05-06T11:37:56.549Z,2.42
2023-05-06T11:41:59.846Z,2.50
2023-05-06T11:46:02.520Z,2.50
2023-05-06T11:50:07.544Z,2.40
2023-05-06T11:54:12.058Z,2.10
2023-05-06T11:58:16.441Z,1.83
2023-05-06T12:02:20.348Z,1.52
2023-05-06T12:06:34.759Z,1.80
2023-05-06T12:10:39.931Z,1.70
2023-05-06T12:14:42.741Z,2.10
2023-05-06T12:18:45.727Z,2.10
2023-05-06T12:23:06.282Z,1.77
2023-05-06T12:27:10.286Z,1.50
2023-05-06T12:31:20.206Z,1.73
2023-05-06T12:35:26.467Z,1.52
2023-05-06T12:39:34.929Z,1.60
2023-05-06T12:43:38.881Z,1.85
2023-05-06T12:47:53.331Z,1.90
2023-05-06T12:52:10.339Z,2.25
2023-05-06T12:56:12.884Z,1.63
2023-05-06T13:00:17.863Z,1.65
2023-05-06T13:04:20.430Z,1.52
2023-05-06T13:08:23.026Z,1.70
2023-05-06T13:12:25.691Z,1.60
2023-05-06T13:16:31.988Z,1.40
2023-05-06T13:20:34.664Z,1.80
2023-05-06T13:24:37.252Z,1.60
2023-05-06T13:28:41.128Z,2.00
2023-05-06T13:32:46.001Z,1.75
2023-05-06T13:36:49.619Z,1.60
2023-05-06T13:40:53.764Z,1.58
2023-05-06T13:44:56.385Z,1.52
2023-05-06T13:49:00.522Z,1.70
2023-05-06T13:53:03.072Z,1.75
2023-05-06T13:57:05.639Z,1.58
2023-05-06T14:01:08.299Z,1.90
2023-05-06T14:05:12.478Z,1.60
2023-05-06T14:09:15.351Z,1.60
2023-05-06T14:13:18.058Z,1.40
2023-05-06T14:17:20.749Z,1.42
2023-05-06T14:21:24.887Z,1.83
2023-05-06T14:25:27.999Z,1.83
2023-05-06T14:29:30.907Z,2.00
2023-05-06T14:33:33.475Z,1.60
2023-05-06T14:37:37.777Z,1.83
2023-05-06T14:41:40.553Z,1.80
2023-05-06T14:45:43.227Z,1.75
2023-05-06T14:49:45.849Z,2.10
2023-05-06T14:53:50.146Z,1.80
2023-05-06T14:57:52.868Z,1.70
2023-05-06T15:01:56.628Z,1.60
2023-05-06T15:05:59.284Z,1.70
2023-05-06T15:10:04.083Z,1.88
2023-05-06T15:14:06.651Z,2.00
2023-05-06T15:18:09.382Z,1.80
2023-05-06T15:22:12.033Z,2.08
2023-05-06T15:26:15.979Z,1.95
2023-05-06T15:30:19.052Z,1.90
2023-05-06T15:34:21.738Z,1.77
2023-05-06T15:38:24.297Z,1.95
2023-05-06T15:42:28.212Z,1.92
2023-05-06T15:46:32.051Z,2.10
2023-05-06T15:50:34.841Z,2.15
2023-05-06T15:58:43.449Z,2.00
2023-05-06T16:02:46.236Z,2.00
2023-05-06T16:06:48.891Z,2.33
2023-05-06T16:10:51.978Z,2.67
2023-05-06T16:14:55.941Z,2.65
2023-05-06T16:18:58.525Z,2.58
2023-05-06T16:23:01.267Z,4.22
2023-05-06T16:27:05.540Z,2.42
2023-05-06T16:31:09.516Z,3.15
2023-05-06T16:35:12.771Z,3.65
2023-05-06T16:39:15.335Z,3.60
2023-05-06T16:43:18.897Z,4.25
2023-05-06T16:47:24.168Z,4.47
2023-05-06T16:51:26.990Z,3.58
2023-05-06T16:55:29.623Z,3.70
2023-05-06T16:59:32.198Z,3.38
2023-05-06T17:03:37.734Z,4.30
2023-05-06T17:07:40.478Z,4.20
2023-05-06T17:11:43.050Z,3.53
2023-05-06T17:15:45.571Z,3.70
2023-05-06T17:19:49.424Z,4.25
2023-05-06T17:23:54.488Z,4.70
2023-05-06T17:27:57.169Z,3.20
2023-05-06T17:32:00.493Z,3.50
2023-05-06T17:36:04.508Z,3.10
2023-05-06T17:40:08.610Z,3.58
2023-05-06T17:44:11.913Z,3.15
2023-05-06T17:48:14.466Z,3.10
2023-05-06T17:52:18.742Z,3.67
2023-05-06T17:56:21.387Z,3.80
2023-05-06T18:00:24.203Z,3.35
2023-05-06T18:04:26.810Z,3.70
2023-05-06T18:08:30.759Z,4.03
2023-05-06T18:12:33.378Z,3.95
2023-05-06T18:16:37.250Z,3.28
2023-05-06T18:20:40.616Z,4.95
2023-05-06T18:28:46.963Z,5.63
2023-05-06T18:32:51.305Z,6.25
2023-05-06T18:36:55.363Z,5.88
2023-05-06T18:40:59.244Z,6.13
2023-05-06T18:45:04.624Z,6.60
2023-05-06T18:49:08.178Z,6.10
2023-05-06T18:53:10.688Z,6.50
2023-05-06T18:57:14.700Z,8.57
2023-05-06T19:01:17.498Z,9.07
2023-05-06T19:05:20.563Z,8.75
2023-05-06T19:09:23.093Z,7.05
2023-05-06T19:13:27.144Z,7.03
2023-05-06T19:17:29.729Z,7.82
2023-05-06T19:21:32.382Z,7.93
2023-05-06T19:25:36.882Z,8.25
2023-05-06T19:29:40.905Z,7.53
2023-05-06T19:33:43.934Z,7.28
2023-05-06T19:37:47.386Z,7.68
2023-05-06T19:41:50.284Z,6.90
2023-05-06T19:45:54.232Z,7.40
2023-05-06T19:49:56.792Z,7.57
2023-05-06T19:53:59.324Z,7.73
2023-05-06T19:58:02.250Z,7.17
2023-05-06T20:02:09.663Z,11.27
2023-05-06T20:06:12.233Z,7.72
2023-05-06T20:10:14.822Z,7.87
2023-05-06T20:14:17.311Z,8.93
2023-05-06T20:18:21.215Z,7.43
2023-05-06T20:22:23.765Z,8.27
2023-05-06T20:26:26.300Z,8.50
2023-05-06T20:30:28.918Z,8.73
2023-05-06T20:34:32.818Z,8.15
2023-05-06T20:38:35.417Z,8.40
2023-05-06T20:42:38.051Z,8.00
2023-05-06T20:46:40.621Z,8.27
2023-05-06T20:50:44.738Z,8.37
2023-05-06T20:54:47.560Z,7.85
2023-05-06T20:58:50.148Z,7.03
